Time;durP1;ratioP1;P1;durP2;ratioP2;P2;SDS_P1;SDS_P2;PMS_P1;PMS_P2;Temp;Humidity;BMP_temperature;BMP_pressure;BME280_temperature;BME280_humidity;BME280_pressure;Samples;Min_cycle;Max_cycle;Signal;HPM_P1;HPM_P2
2023/11/29 00:01:03;;;;;;;0.30;0.20;;;6.70;99.90;;;;;;5109030;28;20648;-72
2023/11/29 00:03:28;;;;;;;0.30;0.20;;;6.70;99.90;;;;;;5108620;28;20620;-72
2023/11/29 00:05:54;;;;;;;0.30;0.20;;;6.70;99.90;;;;;;5107598;28;20176;-73
2023/11/29 00:08:20;;;;;;;0.30;0.20;;;6.70;99.90;;;;;;5107046;28;20311;-72
2023/11/29 00:10:46;;;;;;;0.30;0.20;;;6.70;99.90;;;;;;5108789;28;20203;-72
2023/11/29 00:13:11;;;;;;;0.30;0.20;;;6.70;99.90;;;;;;5108840;28;20227;-73
2023/11/29 00:15:37;;;;;;;0.30;0.20;;;6.80;99.90;;;;;;5109028;28;20443;-73
2023/11/29 00:18:03;;;;;;;0.30;0.20;;;6.80;99.90;;;;;;5107131;28;20599;-72
2023/11/29 00:20:30;;;;;;;0.30;0.20;;;6.80;99.90;;;;;;5108741;28;20338;-72
2023/11/29 00:22:56;;;;;;;0.30;0.22;;;6.70;99.90;;;;;;5108356;28;20228;-72
2023/11/29 00:25:22;;;;;;;0.30;0.20;;;6.80;99.90;;;;;;5108511;28;20183;-72
2023/11/29 00:27:47;;;;;;;0.30;0.20;;;6.70;99.90;;;;;;5108491;28;20312;-75
2023/11/29 00:30:13;;;;;;;0.30;0.20;;;6.70;99.90;;;;;;5107259;28;20203;-72
2023/11/29 00:32:39;;;;;;;0.30;0.30;;;6.70;99.90;;;;;;5106759;28;20296;-72
2023/11/29 00:35:05;;;;;;;0.30;0.20;;;6.70;99.90;;;;;;5108499;28;20652;-72
2023/11/29 00:37:31;;;;;;;0.30;0.20;;;6.70;99.90;;;;;;5106687;28;20213;-72
2023/11/29 00:39:57;;;;;;;0.30;0.20;;;6.60;99.90;;;;;;5107308;28;20724;-72
2023/11/29 00:42:22;;;;;;;0.30;0.20;;;6.60;99.90;;;;;;5108005;28;20172;-72
2023/11/29 00:44:49;;;;;;;0.30;0.20;;;6.50;99.90;;;;;;5107803;28;20244;-74
2023/11/29 00:47:14;;;;;;;0.30;0.20;;;6.50;99.90;;;;;;5106372;28;20661;-74
2023/11/29 00:49:40;;;;;;;0.30;0.20;;;6.50;99.90;;;;;;5107922;28;20227;-74
2023/11/29 00:52:06;;;;;;;0.30;0.20;;;6.50;99.90;;;;;;5108124;28;20196;-74
2023/11/29 00:54:31;;;;;;;0.30;0.20;;;6.40;99.90;;;;;;5108019;28;20643;-74
2023/11/29 00:56:57;;;;;;;0.30;0.20;;;6.40;99.90;;;;;;5108159;28;20660;-74
2023/11/29 00:59:23;;;;;;;0.30;0.20;;;6.40;99.90;;;;;;5107479;27;20211;-72
2023/11/29 01:01:48;;;;;;;0.30;0.20;;;6.40;99.90;;;;;;5106641;28;20184;-72
2023/11/29 01:04:14;;;;;;;0.30;0.20;;;6.30;99.90;;;;;;5107762;28;20665;-72
2023/11/29 01:06:41;;;;;;;0.30;0.20;;;6.30;99.90;;;;;;5106270;28;20226;-73
2023/11/29 01:09:07;;;;;;;0.30;0.20;;;6.30;99.90;;;;;;5107894;27;20641;-72
2023/11/29 01:11:33;;;;;;;0.30;0.20;;;6.30;99.90;;;;;;5107677;28;20221;-72
2023/11/29 01:13:59;;;;;;;0.30;0.20;;;6.30;99.90;;;;;;5107421;28;20797;-73
2023/11/29 01:16:24;;;;;;;0.30;0.20;;;6.20;99.90;;;;;;5106439;28;20180;-72
2023/11/29 01:18:50;;;;;;;0.30;0.20;;;6.20;99.90;;;;;;5106001;28;20231;-71
2023/11/29 01:21:18;;;;;;;0.30;0.20;;;6.20;99.90;;;;;;5106041;28;20179;-73
2023/11/29 01:23:44;;;;;;;0.30;0.20;;;6.10;99.90;;;;;;5106980;28;20283;-72
2023/11/29 01:26:09;;;;;;;0.30;0.20;;;6.10;99.90;;;;;;5107602;28;20350;-72
2023/11/29 01:28:36;;;;;;;0.30;0.20;;;6.10;99.90;;;;;;5106813;28;20194;-72
2023/11/29 01:31:08;;;;;;;0.30;0.20;;;6.10;99.90;;;;;;5107828;28;20176;-72
2023/11/29 01:33:34;;;;;;;0.30;0.20;;;6.00;99.90;;;;;;5105603;28;20219;-72
2023/11/29 01:36:10;;;;;;;0.30;0.20;;;6.00;99.90;;;;;;5107404;28;20238;-72
2023/11/29 01:38:36;;;;;;;0.30;0.20;;;6.00;99.90;;;;;;5105230;28;20222;-73
2023/11/29 01:41:03;;;;;;;0.30;0.20;;;6.00;99.90;;;;;;5107631;28;20203;-72
2023/11/29 01:43:30;;;;;;;0.30;0.20;;;5.90;99.90;;;;;;5105218;28;20203;-72
2023/11/29 01:45:55;;;;;;;0.30;0.20;;;5.90;99.90;;;;;;5107041;28;20178;-72
2023/11/29 01:48:23;;;;;;;0.30;0.20;;;5.90;99.90;;;;;;5106367;28;20192;-72
2023/11/29 01:50:52;;;;;;;0.30;0.20;;;5.90;99.90;;;;;;5106770;28;20431;-72
2023/11/29 01:53:19;;;;;;;0.30;0.30;;;5.90;99.90;;;;;;5105014;28;20200;-72
2023/11/29 01:55:50;;;;;;;0.30;0.20;;;5.90;99.90;;;;;;5107282;28;20342;-72
2023/11/29 01:58:17;;;;;;;0.30;0.20;;;5.80;99.90;;;;;;5106597;28;20699;-73
2023/11/29 02:00:43;;;;;;;0.30;0.20;;;5.70;99.90;;;;;;5105190;28;20180;-71
2023/11/29 02:03:09;;;;;;;0.30;0.20;;;5.70;99.90;;;;;;5107021;28;20253;-72
2023/11/29 02:05:35;;;;;;;0.30;0.20;;;5.70;99.90;;;;;;5106988;28;20256;-73
2023/11/29 02:08:01;;;;;;;0.30;0.20;;;5.60;99.90;;;;;;5106660;28;20250;-72
2023/11/29 02:10:27;;;;;;;0.30;0.20;;;5.50;99.90;;;;;;5106854;28;20167;-71
2023/11/29 02:12:53;;;;;;;0.30;0.20;;;5.40;99.90;;;;;;5106287;28;20616;-72
2023/11/29 02:15:19;;;;;;;0.30;0.20;;;5.40;99.90;;;;;;5106311;28;20736;-72
2023/11/29 02:17:44;;;;;;;0.30;0.20;;;5.30;99.90;;;;;;5104386;28;20319;-72
2023/11/29 02:20:14;;;;;;;0.30;0.20;;;5.20;99.90;;;;;;5105693;28;20176;-72
2023/11/29 02:22:42;;;;;;;0.30;0.20;;;5.10;99.90;;;;;;5106261;28;20509;-72
2023/11/29 02:25:07;;;;;;;0.30;0.20;;;5.00;99.90;;;;;;5106428;28;20172;-72
2023/11/29 02:27:33;;;;;;;0.30;0.20;;;5.00;99.90;;;;;;5104619;28;20697;-71
2023/11/29 02:29:58;;;;;;;0.30;0.30;;;4.90;99.90;;;;;;5106454;28;20441;-72
2023/11/29 02:32:24;;;;;;;0.30;0.20;;;4.70;99.90;;;;;;5106027;28;20167;-72
2023/11/29 02:34:50;;;;;;;0.30;0.30;;;4.70;99.90;;;;;;5104871;28;20425;-72
2023/11/29 02:37:15;;;;;;;0.30;0.30;;;4.60;99.90;;;;;;5106045;28;20182;-72
2023/11/29 02:39:41;;;;;;;0.30;0.20;;;4.60;99.90;;;;;;5106045;28;20471;-72
2023/11/29 02:42:07;;;;;;;0.30;0.20;;;4.50;99.90;;;;;;5106120;28;20172;-72
2023/11/29 02:44:32;;;;;;;0.30;0.20;;;4.40;99.90;;;;;;5105810;28;20757;-73
2023/11/29 02:46:58;;;;;;;0.30;0.20;;;4.40;99.90;;;;;;5104314;28;20550;-72
2023/11/29 02:49:24;;;;;;;0.30;0.30;;;4.40;99.90;;;;;;5105815;28;20192;-72
2023/11/29 02:51:50;;;;;;;0.30;0.30;;;4.30;99.90;;;;;;5106276;28;20168;-71
2023/11/29 02:54:18;;;;;;;0.30;0.25;;;4.20;99.90;;;;;;5104448;28;20451;-72
2023/11/29 02:56:44;;;;;;;0.30;0.20;;;4.20;99.90;;;;;;5106227;28;20183;-73
2023/11/29 02:59:09;;;;;;;0.30;0.20;;;4.10;99.90;;;;;;5105170;28;20272;-72
2023/11/29 03:01:35;;;;;;;0.30;0.30;;;4.10;99.90;;;;;;5106029;28;20850;-72
2023/11/29 03:04:01;;;;;;;0.30;0.30;;;4.10;99.90;;;;;;5108551;28;20760;-72
2023/11/29 03:06:27;;;;;;;0.30;0.30;;;4.00;99.90;;;;;;5109851;28;20168;-72
2023/11/29 03:08:52;;;;;;;0.30;0.30;;;4.00;99.90;;;;;;5109923;28;20197;-72
2023/11/29 03:11:18;;;;;;;0.30;0.30;;;4.00;99.90;;;;;;5108844;28;20324;-74
2023/11/29 03:13:43;;;;;;;0.30;0.20;;;4.00;99.90;;;;;;5109579;28;20195;-74
2023/11/29 03:16:09;;;;;;;0.30;0.20;;;4.00;99.90;;;;;;5110424;28;20187;-74
2023/11/29 03:18:34;;;;;;;0.30;0.20;;;4.00;99.90;;;;;;5108863;28;20695;-73
2023/11/29 03:21:00;;;;;;;0.30;0.20;;;4.00;99.90;;;;;;5107535;28;20183;-74
2023/11/29 03:23:26;;;;;;;0.30;0.30;;;3.90;99.90;;;;;;5109004;28;20187;-72
2023/11/29 03:25:51;;;;;;;0.30;0.20;;;3.90;99.90;;;;;;5109605;28;20446;-72
2023/11/29 03:28:17;;;;;;;0.30;0.20;;;3.90;99.90;;;;;;5109395;28;20204;-72
2023/11/29 03:30:42;;;;;;;0.30;0.30;;;3.80;99.90;;;;;;5109972;28;20233;-72
2023/11/29 03:33:08;;;;;;;0.30;0.20;;;3.80;99.90;;;;;;5109326;28;20270;-72
2023/11/29 03:35:34;;;;;;;0.30;0.20;;;3.80;99.90;;;;;;5108322;28;20176;-72
2023/11/29 03:37:59;;;;;;;0.30;0.30;;;3.80;99.90;;;;;;5109210;27;20696;-73
2023/11/29 03:40:25;;;;;;;0.30;0.30;;;3.80;99.90;;;;;;5107707;28;20582;-72
2023/11/29 03:42:50;;;;;;;0.30;0.30;;;3.80;99.90;;;;;;5109301;28;20349;-72
2023/11/29 03:45:16;;;;;;;0.30;0.30;;;3.80;99.90;;;;;;5107872;28;20179;-74
2023/11/29 03:47:42;;;;;;;0.30;0.30;;;3.80;99.90;;;;;;5108689;28;20681;-73
2023/11/29 03:50:07;;;;;;;0.30;0.20;;;3.80;99.90;;;;;;5109323;28;20183;-74
2023/11/29 03:52:33;;;;;;;0.30;0.30;;;3.80;99.90;;;;;;5109359;28;20212;-74
2023/11/29 03:54:59;;;;;;;0.33;0.33;;;3.80;99.90;;;;;;5109001;28;20435;-74
2023/11/29 03:57:24;;;;;;;0.30;0.30;;;3.80;99.90;;;;;;5107758;28;20180;-75
2023/11/29 03:59:50;;;;;;;0.30;0.20;;;3.80;99.90;;;;;;5108695;28;20196;-74
2023/11/29 04:02:16;;;;;;;0.30;0.30;;;3.90;99.90;;;;;;5108953;28;20183;-74
2023/11/29 04:04:42;;;;;;;0.30;0.30;;;3.90;99.90;;;;;;5109129;28;20199;-74
2023/11/29 04:07:07;;;;;;;0.30;0.20;;;3.90;99.90;;;;;;5107370;28;20676;-74
2023/11/29 04:09:33;;;;;;;0.30;0.20;;;3.90;99.90;;;;;;5107648;28;20580;-74
2023/11/29 04:11:59;;;;;;;0.30;0.30;;;4.00;99.90;;;;;;5108836;28;20180;-74
2023/11/29 04:14:25;;;;;;;0.30;0.20;;;4.00;99.90;;;;;;5108118;28;20809;-74
2023/11/29 04:16:50;;;;;;;0.30;0.20;;;4.10;99.90;;;;;;5107285;28;20271;-74
2023/11/29 04:19:16;;;;;;;0.30;0.20;;;4.10;99.90;;;;;;5108175;28;20276;-74
2023/11/29 04:21:41;;;;;;;0.30;0.20;;;4.10;99.90;;;;;;5108647;28;20647;-74
2023/11/29 04:24:07;;;;;;;0.30;0.20;;;4.10;99.90;;;;;;5107295;28;20188;-74
2023/11/29 04:26:37;;;;;;;0.30;0.20;;;4.10;99.90;;;;;;5107407;28;20182;-74
2023/11/29 04:29:05;;;;;;;0.30;0.20;;;4.10;99.90;;;;;;5107912;28;20270;-74
2023/11/29 04:31:31;;;;;;;0.30;0.20;;;4.20;99.90;;;;;;5108919;27;20625;-74
2023/11/29 04:33:57;;;;;;;0.30;0.20;;;4.20;99.90;;;;;;5108024;28;20683;-74
2023/11/29 04:36:23;;;;;;;0.30;0.20;;;4.20;99.90;;;;;;5108468;28;20578;-74
2023/11/29 04:38:50;;;;;;;0.30;0.30;;;4.20;99.90;;;;;;5106601;28;20215;-74
2023/11/29 04:41:16;;;;;;;0.30;0.20;;;4.20;99.90;;;;;;5108354;28;20164;-74
2023/11/29 04:43:43;;;;;;;0.30;0.30;;;4.20;99.90;;;;;;5106627;28;20691;-74
2023/11/29 04:46:09;;;;;;;0.30;0.30;;;4.20;99.90;;;;;;5106833;28;20621;-75
2023/11/29 04:48:35;;;;;;;0.30;0.30;;;4.30;99.90;;;;;;5107476;28;20656;-74
2023/11/29 04:51:01;;;;;;;0.30;0.30;;;4.30;99.90;;;;;;5108518;28;20529;-74
2023/11/29 04:53:28;;;;;;;0.30;0.20;;;4.30;99.90;;;;;;5107809;28;20199;-72
2023/11/29 04:55:55;;;;;;;0.30;0.30;;;4.30;99.90;;;;;;5108328;28;20248;-72
2023/11/29 04:58:21;;;;;;;0.30;0.20;;;4.20;99.90;;;;;;5105994;28;20308;-72
2023/11/29 05:00:47;;;;;;;0.30;0.20;;;4.20;99.90;;;;;;5106997;28;20179;-72
2023/11/29 05:03:13;;;;;;;0.30;0.30;;;4.20;99.90;;;;;;5106388;28;20547;-73
2023/11/29 05:05:39;;;;;;;0.30;0.20;;;4.20;99.90;;;;;;5107967;28;20176;-73
2023/11/29 05:08:05;;;;;;;0.30;0.30;;;4.10;99.90;;;;;;5107201;28;20386;-72
2023/11/29 05:10:31;;;;;;;0.30;0.30;;;4.10;99.90;;;;;;5107590;28;20172;-72
2023/11/29 05:12:56;;;;;;;0.30;0.20;;;4.10;99.90;;;;;;5105650;28;20242;-72
2023/11/29 05:15:23;;;;;;;0.30;0.20;;;4.10;99.90;;;;;;5106037;28;20237;-73
2023/11/29 05:17:48;;;;;;;0.30;0.20;;;4.10;99.90;;;;;;5106199;28;20539;-72
2023/11/29 05:20:14;;;;;;;0.30;0.20;;;4.00;99.90;;;;;;5107379;28;20754;-72
2023/11/29 05:22:39;;;;;;;0.30;0.20;;;4.00;99.90;;;;;;5122530;27;20179;-72
2023/11/29 05:25:05;;;;;;;0.30;0.30;;;3.90;99.90;;;;;;5109372;27;20271;-72
2023/11/29 05:27:31;;;;;;;0.30;0.30;;;3.90;99.90;;;;;;5096148;28;20580;-72
2023/11/29 05:29:56;;;;;;;0.30;0.30;;;3.80;99.90;;;;;;5111012;27;20485;-72
2023/11/29 05:32:22;;;;;;;0.30;0.20;;;3.70;99.90;;;;;;5105679;28;20552;-72
2023/11/29 05:34:48;;;;;;;0.30;0.30;;;3.60;99.90;;;;;;5106432;28;20305;-72
2023/11/29 05:37:14;;;;;;;0.30;0.20;;;3.60;99.90;;;;;;5105025;28;20176;-72
2023/11/29 05:39:39;;;;;;;0.30;0.30;;;3.50;99.90;;;;;;5106238;28;20215;-73
2023/11/29 05:42:05;;;;;;;0.30;0.30;;;3.60;99.90;;;;;;5106312;28;20172;-72
2023/11/29 05:44:34;;;;;;;0.30;0.20;;;3.50;99.90;;;;;;5102999;28;20692;-72
2023/11/29 05:47:01;;;;;;;0.30;0.30;;;3.40;99.90;;;;;;5102550;28;20815;-73
2023/11/29 05:49:27;;;;;;;0.30;0.30;;;3.30;99.90;;;;;;5104141;28;20538;-72
2023/11/29 05:51:52;;;;;;;0.30;0.30;;;3.20;99.90;;;;;;5103551;28;20249;-72
2023/11/29 05:54:21;;;;;;;0.30;0.30;;;3.20;99.90;;;;;;5103003;28;20497;-72
2023/11/29 05:56:48;;;;;;;0.30;0.30;;;3.10;99.90;;;;;;5104366;28;20544;-72
2023/11/29 05:59:13;;;;;;;0.30;0.30;;;3.10;99.90;;;;;;5119667;27;20222;-72
2023/11/29 06:01:39;;;;;;;0.30;0.20;;;3.00;99.90;;;;;;5120354;27;20183;-72
2023/11/29 06:04:05;;;;;;;0.30;0.30;;;3.00;99.90;;;;;;5103449;28;20196;-72
2023/11/29 06:06:31;;;;;;;0.30;0.20;;;3.00;99.90;;;;;;5105738;28;20658;-72
2023/11/29 06:08:58;;;;;;;0.30;0.30;;;3.00;99.90;;;;;;5102786;28;20195;-73
2023/11/29 06:11:23;;;;;;;0.30;0.30;;;2.90;99.90;;;;;;5102872;28;20603;-72
2023/11/29 06:13:51;;;;;;;0.30;0.30;;;2.90;99.90;;;;;;5103443;28;20206;-72
2023/11/29 06:16:17;;;;;;;0.30;0.20;;;2.90;99.90;;;;;;5106078;28;20373;-74
2023/11/29 06:18:43;;;;;;;0.30;0.30;;;2.80;99.90;;;;;;5104573;28;20712;-74
2023/11/29 06:21:08;;;;;;;0.30;0.30;;;2.80;99.90;;;;;;5105432;28;20588;-74
2023/11/29 06:23:34;;;;;;;0.30;0.30;;;2.80;99.90;;;;;;5103000;28;20374;-74
2023/11/29 06:25:59;;;;;;;0.30;0.20;;;2.80;99.90;;;;;;5104018;28;20196;-74
2023/11/29 06:28:27;;;;;;;0.30;0.30;;;2.80;99.90;;;;;;5093271;28;20212;-72
2023/11/29 06:30:54;;;;;;;0.30;0.30;;;2.80;99.90;;;;;;5096485;28;20748;-72
2023/11/29 06:33:20;;;;;;;0.30;0.20;;;2.80;99.90;;;;;;5103132;28;20207;-72
2023/11/29 06:35:45;;;;;;;0.30;0.20;;;2.70;99.90;;;;;;5104743;28;20240;-72
2023/11/29 06:38:11;;;;;;;0.30;0.30;;;2.70;99.90;;;;;;5102807;28;20474;-72
2023/11/29 06:40:37;;;;;;;0.30;0.30;;;2.70;99.90;;;;;;5104256;28;20654;-72
2023/11/29 06:43:02;;;;;;;0.30;0.30;;;2.70;99.90;;;;;;5100331;28;20613;-72
2023/11/29 06:45:28;;;;;;;0.30;0.30;;;2.70;99.90;;;;;;5112397;27;20601;-73
2023/11/29 06:47:54;;;;;;;0.30;0.30;;;2.70;99.90;;;;;;5104321;28;20201;-73
2023/11/29 06:50:19;;;;;;;0.30;0.27;;;2.70;99.90;;;;;;5102798;28;20596;-72
2023/11/29 06:52:45;;;;;;;0.30;0.30;;;2.70;99.90;;;;;;5103382;28;20164;-73
2023/11/29 06:55:11;;;;;;;0.30;0.20;;;2.70;99.90;;;;;;5103419;28;20520;-72
2023/11/29 06:57:37;;;;;;;0.30;0.30;;;2.70;99.90;;;;;;5101644;28;20183;-72
2023/11/29 07:00:10;;;;;;;0.30;0.30;;;2.70;99.90;;;;;;5101563;28;20519;-73
2023/11/29 07:02:39;;;;;;;0.30;0.20;;;2.70;99.90;;;;;;5101342;28;20436;-72
2023/11/29 07:05:07;;;;;;;0.30;0.30;;;2.70;99.90;;;;;;5117326;28;20431;-73
2023/11/29 07:07:34;;;;;;;0.30;0.30;;;2.70;99.90;;;;;;5104447;28;20911;-73
2023/11/29 07:09:59;;;;;;;0.30;0.30;;;2.70;99.90;;;;;;5098901;28;20614;-72
2023/11/29 07:12:26;;;;;;;0.30;0.30;;;2.70;99.90;;;;;;5092648;28;20271;-72
2023/11/29 07:14:53;;;;;;;0.30;0.20;;;2.80;99.90;;;;;;5099874;28;20232;-73
2023/11/29 07:17:19;;;;;;;0.30;0.30;;;2.80;99.90;;;;;;5099049;28;20328;-72
2023/11/29 07:19:47;;;;;;;0.30;0.30;;;2.90;99.90;;;;;;5095939;28;20647;-73
2023/11/29 07:22:14;;;;;;;0.30;0.30;;;3.00;99.90;;;;;;5098235;28;20184;-72
2023/11/29 07:24:47;;;;;;;0.30;0.30;;;3.10;99.90;;;;;;5096204;28;20427;-72
2023/11/29 07:27:13;;;;;;;0.30;0.30;;;3.30;99.90;;;;;;5095793;28;20182;-73
2023/11/29 07:29:38;;;;;;;0.30;0.30;;;3.50;99.90;;;;;;5097195;28;20584;-73
2023/11/29 07:32:05;;;;;;;0.30;0.30;;;3.60;99.90;;;;;;5100335;28;20172;-73
2023/11/29 07:34:31;;;;;;;0.30;0.30;;;3.80;99.90;;;;;;5099009;28;20307;-72
2023/11/29 07:36:56;;;;;;;0.30;0.30;;;4.00;99.90;;;;;;5101535;28;20711;-72
2023/11/29 07:39:22;;;;;;;0.30;0.30;;;4.30;99.90;;;;;;5096609;28;20803;-72
2023/11/29 07:41:48;;;;;;;0.30;0.30;;;4.50;99.90;;;;;;5106601;27;20176;-73
2023/11/29 07:44:14;;;;;;;0.30;0.30;;;4.70;99.90;;;;;;5115418;27;20426;-72
2023/11/29 07:46:41;;;;;;;0.30;0.30;;;5.00;99.90;;;;;;5104565;28;20653;-73
2023/11/29 07:49:07;;;;;;;0.30;0.30;;;5.20;99.90;;;;;;5103984;27;20202;-73
2023/11/29 07:51:33;;;;;;;0.30;0.30;;;5.50;99.90;;;;;;5105264;27;20263;-73
2023/11/29 07:53:59;;;;;;;0.30;0.30;;;5.90;99.90;;;;;;5109812;27;20710;-73
2023/11/29 07:56:25;;;;;;;0.30;0.30;;;6.50;99.90;;;;;;5111056;27;20187;-75
2023/11/29 07:58:50;;;;;;;0.30;0.30;;;7.00;99.90;;;;;;5105072;27;20885;-73
2023/11/29 08:01:16;;;;;;;0.30;0.30;;;7.50;99.90;;;;;;5102820;27;20187;-73
2023/11/29 08:03:42;;;;;;;1.33;1.33;;;8.00;99.90;;;;;;5113047;27;20701;-73
2023/11/29 08:06:08;;;;;;;2.97;2.87;;;8.50;99.90;;;;;;5107145;27;20452;-73
2023/11/29 08:08:34;;;;;;;0.30;0.30;;;8.80;99.90;;;;;;5110359;27;20430;-73
2023/11/29 08:11:00;;;;;;;0.30;0.30;;;9.10;99.90;;;;;;5105993;27;20179;-73
2023/11/29 08:13:26;;;;;;;1.70;1.70;;;9.20;99.90;;;;;;5114501;27;20744;-74
2023/11/29 08:15:53;;;;;;;0.30;0.30;;;9.50;99.90;;;;;;5128978;27;20427;-73
2023/11/29 08:18:19;;;;;;;0.30;0.30;;;9.70;99.90;;;;;;5107799;27;20642;-73
2023/11/29 08:20:45;;;;;;;1.52;1.45;;;9.80;99.90;;;;;;5115919;27;20189;-73
2023/11/29 08:23:11;;;;;;;0.40;0.30;;;9.80;99.90;;;;;;5102722;27;20233;-73
2023/11/29 08:25:36;;;;;;;2.53;2.00;;;9.60;99.90;;;;;;5109437;27;20175;-73
2023/11/29 08:28:02;;;;;;;0.30;0.20;;;9.40;99.90;;;;;;5104999;27;21000;-73
2023/11/29 08:30:28;;;;;;;0.30;0.20;;;9.20;99.90;;;;;;5107202;27;20187;-73
2023/11/29 08:32:54;;;;;;;0.30;0.30;;;8.90;99.90;;;;;;5110768;27;20318;-73
2023/11/29 08:35:19;;;;;;;0.30;0.30;;;8.50;99.90;;;;;;5107569;27;20207;-73
2023/11/29 08:37:45;;;;;;;0.43;0.43;;;8.20;99.90;;;;;;5103925;27;20744;-73
2023/11/29 08:40:11;;;;;;;0.30;0.20;;;7.90;99.90;;;;;;5110165;27;20246;-73
2023/11/29 08:42:36;;;;;;;0.30;0.20;;;7.60;99.90;;;;;;5127645;27;20210;-73
2023/11/29 08:45:03;;;;;;;0.30;0.20;;;7.50;99.90;;;;;;5108642;27;20175;-73
2023/11/29 08:47:28;;;;;;;0.40;0.40;;;7.40;99.90;;;;;;5101273;27;20418;-73
2023/11/29 08:49:54;;;;;;;0.30;0.20;;;7.40;99.90;;;;;;5097245;27;20200;-73
2023/11/29 08:52:22;;;;;;;0.30;0.20;;;7.40;99.90;;;;;;5123923;27;20217;-73
2023/11/29 08:54:50;;;;;;;0.30;0.20;;;7.40;99.90;;;;;;5101070;27;20200;-73
2023/11/29 08:57:17;;;;;;;0.30;0.30;;;7.50;99.90;;;;;;5094840;27;20187;-73
2023/11/29 08:59:43;;;;;;;0.40;0.40;;;7.60;99.90;;;;;;5098650;27;20214;-74
2023/11/29 09:02:09;;;;;;;0.30;0.30;;;7.70;99.90;;;;;;5093982;28;20288;-74
2023/11/29 09:04:35;;;;;;;0.30;0.30;;;7.90;99.90;;;;;;5116830;27;20229;-74
2023/11/29 09:07:04;;;;;;;0.30;0.30;;;8.20;99.90;;;;;;5100812;27;20211;-73
2023/11/29 09:09:30;;;;;;;0.30;0.20;;;8.40;99.90;;;;;;5098845;27;20458;-73
2023/11/29 09:11:56;;;;;;;0.30;0.20;;;8.50;99.90;;;;;;5099158;27;20191;-74
2023/11/29 09:14:21;;;;;;;21.50;19.80;;;8.40;99.90;;;;;;5100969;27;20783;-73
2023/11/29 09:16:47;;;;;;;0.30;0.20;;;8.30;99.90;;;;;;5101832;27;20646;-73
2023/11/29 09:19:12;;;;;;;0.30;0.20;;;8.00;99.90;;;;;;5097730;27;20771;-73
2023/11/29 09:21:38;;;;;;;1.00;0.93;;;7.70;99.90;;;;;;5108619;27;20179;-74
2023/11/29 09:24:04;;;;;;;0.30;0.20;;;7.40;99.90;;;;;;5098696;27;20376;-73
2023/11/29 09:26:30;;;;;;;0.30;0.20;;;7.20;99.90;;;;;;5101868;27;20434;-73
2023/11/29 09:28:56;;;;;;;0.30;0.20;;;7.00;99.90;;;;;;5107029;27;20203;-74
2023/11/29 09:31:21;;;;;;;0.30;0.20;;;6.80;99.90;;;;;;5099004;27;20777;-73
2023/11/29 09:33:47;;;;;;;0.30;0.20;;;6.70;99.90;;;;;;5108626;27;20533;-74
2023/11/29 09:36:15;;;;;;;0.30;0.20;;;6.60;99.90;;;;;;5099599;27;20362;-74
2023/11/29 09:38:41;;;;;;;0.30;0.20;;;6.40;99.90;;;;;;5108722;27;20246;-74
2023/11/29 09:41:06;;;;;;;0.30;0.20;;;6.30;99.90;;;;;;5103950;27;20327;-74
2023/11/29 09:43:34;;;;;;;0.30;0.20;;;6.10;99.90;;;;;;5099476;27;20204;-74
2023/11/29 09:46:00;;;;;;;0.30;0.28;;;6.00;99.90;;;;;;5097391;27;20200;-74
2023/11/29 09:48:26;;;;;;;0.30;0.30;;;6.00;99.90;;;;;;5102054;27;20285;-74
2023/11/29 09:50:53;;;;;;;0.30;0.25;;;5.90;99.90;;;;;;5105123;27;20168;-74
2023/11/29 09:53:18;;;;;;;0.30;0.30;;;5.80;99.90;;;;;;5106857;27;20203;-74
2023/11/29 09:55:44;;;;;;;0.30;0.30;;;5.80;99.90;;;;;;5101792;27;20175;-74
2023/11/29 09:58:10;;;;;;;0.30;0.30;;;5.70;99.90;;;;;;5107937;27;20249;-74
2023/11/29 10:00:36;;;;;;;0.30;0.30;;;5.70;99.90;;;;;;5109450;27;20450;-74
2023/11/29 10:03:11;;;;;;;0.30;0.20;;;5.60;99.90;;;;;;5105949;27;20425;-74
2023/11/29 10:05:36;;;;;;;0.30;0.20;;;5.50;99.90;;;;;;5093517;27;20251;-74
2023/11/29 10:08:02;;;;;;;0.30;0.30;;;5.50;99.90;;;;;;5101823;27;20199;-74
2023/11/29 10:10:34;;;;;;;0.30;0.20;;;5.50;99.90;;;;;;5103203;27;20613;-73
2023/11/29 10:12:59;;;;;;;0.30;0.20;;;5.40;99.90;;;;;;5096599;27;20967;-74
2023/11/29 10:15:25;;;;;;;27.53;25.27;;;5.40;99.90;;;;;;5107602;27;20179;-74
2023/11/29 10:17:51;;;;;;;0.30;0.30;;;5.30;99.90;;;;;;5099148;27;20551;-74
2023/11/29 10:20:17;;;;;;;0.30;0.30;;;5.30;99.90;;;;;;5125225;27;20482;-74
2023/11/29 10:22:49;;;;;;;1.00;1.00;;;5.20;99.90;;;;;;5097983;28;20724;-74
2023/11/29 10:25:22;;;;;;;0.30;0.20;;;5.20;99.90;;;;;;5101145;27;20251;-75
2023/11/29 10:27:48;;;;;;;0.30;0.30;;;5.20;99.90;;;;;;5104440;27;20180;-73
2023/11/29 10:30:15;;;;;;;0.30;0.30;;;5.20;99.90;;;;;;5110181;27;20171;-74
2023/11/29 10:32:41;;;;;;;0.30;0.30;;;5.10;99.90;;;;;;5102545;27;20188;-74
2023/11/29 10:35:13;;;;;;;0.30;0.20;;;5.10;99.90;;;;;;5098768;27;20260;-74
2023/11/29 10:37:56;;;;;;;0.30;0.30;;;5.10;99.90;;;;;;5114885;27;20207;-74
2023/11/29 10:40:23;;;;;;;0.30;0.30;;;5.10;99.90;;;;;;5101960;27;20236;-73
2023/11/29 10:42:53;;;;;;;0.30;0.30;;;5.00;99.90;;;;;;5107888;27;20561;-73
2023/11/29 10:45:20;;;;;;;0.30;0.30;;;5.00;99.90;;;;;;5108933;27;20187;-75
2023/11/29 10:47:56;;;;;;;0.30;0.20;;;5.00;99.90;;;;;;5104874;28;20641;-75
2023/11/29 10:50:24;;;;;;;0.30;0.20;;;4.90;99.90;;;;;;5108906;27;20219;-73
2023/11/29 10:52:50;;;;;;;0.30;0.30;;;5.00;99.90;;;;;;5101986;28;20191;-73
2023/11/29 10:55:16;;;;;;;0.30;0.30;;;5.00;99.90;;;;;;5098622;28;20187;-75
2023/11/29 10:58:13;;;;;;;0.30;0.20;;;5.00;99.90;;;;;;5100125;28;20242;-74
2023/11/29 11:00:43;;;;;;;0.32;0.30;;;5.00;99.90;;;;;;5100991;28;20364;-75
2023/11/29 11:03:29;;;;;;;0.30;0.20;;;5.10;99.90;;;;;;5090934;28;20214;-75
2023/11/29 11:06:23;;;;;;;0.30;0.20;;;5.10;99.90;;;;;;5104328;28;20679;-75
2023/11/29 11:08:50;;;;;;;0.30;0.20;;;5.10;99.90;;;;;;5102384;27;20235;-75
2023/11/29 11:11:45;;;;;;;0.30;0.20;;;5.00;99.90;;;;;;5104924;28;20262;-72
2023/11/29 11:14:27;;;;;;;0.30;0.30;;;5.00;99.90;;;;;;5099394;28;20643;-73
2023/11/29 11:17:00;;;;;;;0.30;0.20;;;5.00;99.90;;;;;;5106095;28;20203;-73
2023/11/29 11:19:42;;;;;;;0.30;0.20;;;5.10;99.90;;;;;;5098769;28;20645;-75
2023/11/29 11:22:32;;;;;;;0.30;0.20;;;5.00;99.90;;;;;;5101783;27;20179;-73
2023/11/29 11:25:12;;;;;;;0.30;0.20;;;5.00;99.90;;;;;;5102068;27;20187;-75
2023/11/29 11:27:47;;;;;;;0.30;0.30;;;5.00;99.90;;;;;;5097109;27;20349;-75
2023/11/29 11:30:19;;;;;;;0.30;0.20;;;5.00;99.90;;;;;;5103729;27;20256;-75
2023/11/29 11:32:49;;;;;;;0.30;0.20;;;4.90;99.90;;;;;;5103359;27;20183;-73
2023/11/29 11:35:18;;;;;;;0.30;0.30;;;5.00;99.90;;;;;;5109269;27;20194;-73
2023/11/29 11:37:44;;;;;;;0.30;0.30;;;5.00;99.90;;;;;;5110520;27;20676;-73
2023/11/29 11:40:14;;;;;;;0.30;0.30;;;5.00;99.90;;;;;;5103089;27;20175;-73
2023/11/29 11:42:41;;;;;;;0.30;0.20;;;5.10;99.90;;;;;;5098810;27;20190;-75
2023/11/29 11:45:08;;;;;;;0.30;0.20;;;5.10;99.90;;;;;;5108285;27;20266;-74
2023/11/29 11:47:35;;;;;;;0.30;0.22;;;5.10;99.90;;;;;;5109303;27;20617;-74
2023/11/29 11:50:01;;;;;;;0.30;0.20;;;5.20;99.90;;;;;;5096361;27;20729;-74
2023/11/29 11:52:27;;;;;;;0.30;0.20;;;5.20;99.90;;;;;;5098233;27;20777;-74
2023/11/29 11:54:52;;;;;;;0.30;0.30;;;5.20;99.90;;;;;;5100190;27;20199;-74
2023/11/29 11:57:18;;;;;;;0.30;0.20;;;5.20;99.90;;;;;;5096304;27;20420;-74
2023/11/29 11:59:44;;;;;;;0.30;0.30;;;5.20;99.90;;;;;;5108491;27;20219;-74
2023/11/29 12:02:10;;;;;;;0.30;0.20;;;5.20;99.90;;;;;;5108712;27;20184;-73
2023/11/29 12:04:36;;;;;;;0.30;0.20;;;5.20;99.90;;;;;;5107355;27;20199;-74
2023/11/29 12:07:04;;;;;;;0.30;0.20;;;5.20;99.90;;;;;;5096326;27;20279;-74
2023/11/29 12:09:29;;;;;;;0.30;0.20;;;5.20;99.90;;;;;;5100891;27;20210;-74
2023/11/29 12:12:07;;;;;;;0.30;0.20;;;5.20;99.90;;;;;;5103296;27;21057;-74
2023/11/29 12:14:33;;;;;;;0.30;0.20;;;5.20;99.90;;;;;;5106570;27;20435;-73
2023/11/29 12:16:59;;;;;;;0.30;0.20;;;5.20;99.90;;;;;;5105222;27;20692;-74
2023/11/29 12:19:24;;;;;;;0.30;0.20;;;5.30;99.90;;;;;;5106976;27;20456;-74
2023/11/29 12:21:50;;;;;;;0.30;0.20;;;5.30;99.90;;;;;;5108306;27;20240;-74
2023/11/29 12:24:16;;;;;;;0.30;0.20;;;5.30;99.90;;;;;;5103101;27;20610;-74
2023/11/29 12:26:41;;;;;;;0.30;0.20;;;5.40;99.90;;;;;;5097402;27;20636;-74
2023/11/29 12:29:08;;;;;;;0.30;0.20;;;5.50;99.90;;;;;;5107831;27;20203;-74
2023/11/29 12:31:37;;;;;;;0.30;0.20;;;5.50;99.90;;;;;;5096864;27;20192;-74
2023/11/29 12:34:04;;;;;;;0.30;0.20;;;5.60;99.90;;;;;;5105117;27;20206;-74
2023/11/29 12:36:30;;;;;;;0.30;0.20;;;5.70;99.90;;;;;;5103771;27;20188;-75
2023/11/29 12:39:00;;;;;;;0.30;0.20;;;5.80;99.90;;;;;;5113141;27;20694;-74
2023/11/29 12:41:25;;;;;;;0.30;0.20;;;5.80;99.90;;;;;;5111305;27;20180;-74
2023/11/29 12:43:51;;;;;;;0.30;0.20;;;5.90;99.90;;;;;;5113492;27;20198;-74
2023/11/29 12:46:17;;;;;;;0.30;0.20;;;5.90;99.90;;;;;;5110381;27;20171;-74
2023/11/29 12:48:43;;;;;;;0.30;0.20;;;5.90;99.90;;;;;;5100770;27;20531;-74
2023/11/29 12:51:13;;;;;;;0.30;0.20;;;6.00;99.90;;;;;;5101693;27;20191;-74
2023/11/29 12:53:40;;;;;;;0.30;0.20;;;6.10;99.90;;;;;;5106300;27;20453;-74
2023/11/29 12:56:07;;;;;;;0.30;0.20;;;6.10;99.90;;;;;;5104967;27;20217;-73